createdAt,value
2022-12-01T00:01:26.440Z,41.20
2022-12-01T00:03:54.981Z,41.40
2022-12-01T00:06:23.024Z,40.03
2022-12-01T00:09:09.617Z,42.60
2022-12-01T00:11:39.638Z,41.17
2022-12-01T00:14:07.815Z,42.40
2022-12-01T00:16:37.048Z,43.13
2022-12-01T00:19:05.663Z,43.70
2022-12-01T00:21:33.417Z,43.17
2022-12-01T00:24:01.255Z,43.53
2022-12-01T00:26:29.469Z,43.38
2022-12-01T00:29:00.253Z,46.72
2022-12-01T00:31:28.632Z,47.73
2022-12-01T00:33:56.530Z,44.83
2022-12-01T00:36:24.685Z,45.25
2022-12-01T00:38:53.462Z,44.90
2022-12-01T00:41:21.751Z,43.72
2022-12-01T00:43:49.560Z,43.30
2022-12-01T00:46:19.082Z,44.40
2022-12-01T00:48:47.063Z,43.53
2022-12-01T00:51:14.866Z,42.97
2022-12-01T00:53:42.620Z,44.30
2022-12-01T00:56:10.408Z,43.42
2022-12-01T00:58:38.193Z,43.67
2022-12-01T01:01:06.309Z,44.38
2022-12-01T01:03:35.731Z,45.22
2022-12-01T01:06:07.797Z,45.17
2022-12-01T01:08:35.702Z,43.60
2022-12-01T01:11:03.510Z,44.53
2022-12-01T01:13:31.921Z,44.03
2022-12-01T01:16:01.389Z,43.65
2022-12-01T01:18:29.466Z,42.45
2022-12-01T01:21:01.120Z,39.65
2022-12-01T01:23:28.934Z,37.53
2022-12-01T01:26:02.416Z,37.88
2022-12-01T01:28:31.054Z,37.42
2022-12-01T01:30:59.237Z,36.92
2022-12-01T01:33:27.108Z,37.08
2022-12-01T01:35:54.880Z,37.10
2022-12-01T01:38:23.978Z,36.78
2022-12-01T01:40:51.787Z,37.22
2022-12-01T01:43:40.923Z,37.47
2022-12-01T01:46:09.116Z,38.25
2022-12-01T01:48:39.169Z,38.28
2022-12-01T01:51:07.312Z,39.35
2022-12-01T01:53:36.725Z,40.90
2022-12-01T01:56:05.525Z,42.25
2022-12-01T01:58:34.487Z,42.13
2022-12-01T02:01:02.929Z,41.35
2022-12-01T02:03:31.143Z,42.88
2022-12-01T02:06:04.626Z,40.88
2022-12-01T02:08:38.109Z,41.70
2022-12-01T02:11:35.086Z,43.55
2022-12-01T02:14:14.413Z,43.28
2022-12-01T02:16:51.042Z,43.17
2022-12-01T02:19:43.001Z,42.17
2022-12-01T02:22:23.174Z,44.05
2022-12-01T02:25:18.271Z,41.78
2022-12-01T02:28:17.895Z,43.95
2022-12-01T02:30:51.293Z,42.57
2022-12-01T02:33:23.766Z,43.53
2022-12-01T02:35:58.713Z,42.63
2022-12-01T02:38:30.834Z,43.35
2022-12-01T02:41:06.367Z,44.78
2022-12-01T02:43:43.474Z,45.40
2022-12-01T02:46:17.009Z,45.47
2022-12-01T02:48:47.925Z,43.22
2022-12-01T02:51:20.480Z,42.78
2022-12-01T02:53:48.497Z,45.47
2022-12-01T02:56:16.852Z,45.35
2022-12-01T02:58:44.820Z,43.70
2022-12-01T03:01:34.191Z,44.08
2022-12-01T03:04:27.548Z,45.00
2022-12-01T03:07:05.118Z,45.10
2022-12-01T03:09:42.234Z,46.17
2022-12-01T03:12:21.975Z,45.30
2022-12-01T03:14:59.424Z,45.42
2022-12-01T03:17:31.665Z,46.10
2022-12-01T03:20:08.583Z,46.97
2022-12-01T03:22:40.536Z,46.00
2022-12-01T03:25:10.390Z,46.72
2022-12-01T03:28:00.667Z,46.97
2022-12-01T03:30:36.188Z,48.05
2022-12-01T03:33:10.603Z,47.03
2022-12-01T03:35:42.848Z,46.08
2022-12-01T03:38:16.861Z,46.45
2022-12-01T03:40:47.364Z,46.22
2022-12-01T03:43:20.142Z,45.90
2022-12-01T03:45:54.798Z,46.77
2022-12-01T03:48:25.054Z,45.78
2022-12-01T03:51:03.053Z,47.38
2022-12-01T03:53:38.051Z,47.65
2022-12-01T03:56:08.958Z,48.30
2022-12-01T03:58:41.602Z,48.73
2022-12-01T04:01:09.934Z,48.40
2022-12-01T04:03:39.122Z,46.88
2022-12-01T04:06:07.889Z,47.80
2022-12-01T04:08:37.399Z,48.65
2022-12-01T04:11:31.126Z,47.83
2022-12-01T04:13:59.413Z,45.75
2022-12-01T04:16:27.318Z,48.33
2022-12-01T04:18:56.549Z,46.30
2022-12-01T04:21:24.355Z,45.97
2022-12-01T04:24:00.900Z,47.00
2022-12-01T04:26:29.324Z,46.63
2022-12-01T04:28:57.120Z,46.15
2022-12-01T04:31:24.980Z,44.28
2022-12-01T04:33:53.032Z,44.65
2022-12-01T04:36:22.296Z,46.00
2022-12-01T04:38:50.065Z,43.80
2022-12-01T04:41:17.999Z,44.08
2022-12-01T04:43:46.081Z,44.80
2022-12-01T04:46:15.565Z,44.80
2022-12-01T04:48:43.881Z,44.20
2022-12-01T04:51:11.683Z,45.13
2022-12-01T04:53:40.980Z,45.30
2022-12-01T04:56:08.945Z,44.38
2022-12-01T04:58:38.823Z,45.08
2022-12-01T05:01:08.713Z,42.30
2022-12-01T05:03:38.079Z,43.50
2022-12-01T05:06:07.477Z,42.78
2022-12-01T05:08:35.253Z,41.50
2022-12-01T05:11:06.350Z,41.17
2022-12-01T05:13:34.423Z,42.20
2022-12-01T05:16:06.998Z,41.60
2022-12-01T05:18:35.142Z,38.90
2022-12-01T05:21:03.842Z,41.00
2022-12-01T05:23:33.630Z,41.03
2022-12-01T05:26:02.177Z,41.13
2022-12-01T05:28:31.746Z,40.63
2022-12-01T05:30:59.523Z,41.03
2022-12-01T05:33:28.185Z,39.58
2022-12-01T05:35:56.301Z,40.58
2022-12-01T05:38:24.228Z,40.95
2022-12-01T05:40:53.378Z,41.72
2022-12-01T05:43:28.345Z,42.45
2022-12-01T05:45:59.107Z,42.33
2022-12-01T05:48:27.168Z,40.72
2022-12-01T05:50:55.070Z,40.05
2022-12-01T05:53:23.109Z,40.53
2022-12-01T05:55:53.202Z,40.83
2022-12-01T05:58:21.056Z,39.40
2022-12-01T06:00:48.883Z,39.87
2022-12-01T06:03:18.238Z,41.22
2022-12-01T06:05:46.034Z,41.10
2022-12-01T06:08:13.850Z,39.92
2022-12-01T06:10:41.686Z,39.67
2022-12-01T06:13:10.136Z,40.60
2022-12-01T06:15:38.621Z,39.00
2022-12-01T06:18:06.555Z,39.90
2022-12-01T06:20:35.743Z,39.97
2022-12-01T06:23:03.541Z,39.90
2022-12-01T06:25:31.345Z,38.33
2022-12-01T06:27:59.601Z,39.15
2022-12-01T06:30:27.599Z,39.80
2022-12-01T06:32:55.443Z,39.78
2022-12-01T06:35:23.450Z,38.42
2022-12-01T06:37:54.105Z,37.25
2022-12-01T06:40:22.144Z,38.47
2022-12-01T06:42:49.940Z,40.97
2022-12-01T06:45:19.503Z,38.63
2022-12-01T06:47:48.300Z,38.50
2022-12-01T06:50:17.225Z,39.00
2022-12-01T06:52:45.148Z,39.50
2022-12-01T06:55:14.623Z,38.10
2022-12-01T06:57:44.445Z,37.63
2022-12-01T07:00:14.241Z,39.00
2022-12-01T07:02:45.649Z,39.33
2022-12-01T07:05:14.256Z,37.90
2022-12-01T07:07:42.127Z,38.05
2022-12-01T07:10:11.582Z,38.35
2022-12-01T07:12:41.293Z,38.00
2022-12-01T07:15:12.553Z,36.93
2022-12-01T07:17:40.355Z,37.53
2022-12-01T07:20:10.143Z,36.20
2022-12-01T07:22:38.695Z,36.83
2022-12-01T07:25:08.202Z,37.22
2022-12-01T07:27:36.369Z,37.40
2022-12-01T07:30:06.750Z,38.80
2022-12-01T07:32:34.537Z,37.50
2022-12-01T07:35:02.293Z,36.33
2022-12-01T07:37:30.085Z,38.85
2022-12-01T07:39:57.873Z,37.65
2022-12-01T07:42:25.648Z,40.50
2022-12-01T07:44:53.617Z,39.63
2022-12-01T07:47:22.911Z,40.47
2022-12-01T07:49:50.892Z,40.28
2022-12-01T07:52:19.436Z,39.63
2022-12-01T07:54:47.207Z,39.75
2022-12-01T07:57:15.482Z,38.92
2022-12-01T07:59:43.361Z,38.03
2022-12-01T08:02:11.717Z,39.20
2022-12-01T08:04:41.286Z,38.55
2022-12-01T08:07:09.602Z,37.60
2022-12-01T08:09:37.408Z,37.50
2022-12-01T08:12:05.540Z,37.42
2022-12-01T08:14:33.596Z,36.40
2022-12-01T08:17:01.673Z,38.00
2022-12-01T08:19:29.465Z,35.60
2022-12-01T08:21:58.688Z,34.77
2022-12-01T08:24:26.605Z,34.13
2022-12-01T08:26:54.374Z,33.17
2022-12-01T08:29:22.241Z,34.53
2022-12-01T08:31:50.110Z,35.38
2022-12-01T08:34:17.991Z,34.20
2022-12-01T08:36:45.798Z,34.45
2022-12-01T08:39:15.968Z,32.45
2022-12-01T08:41:44.376Z,32.53
2022-12-01T08:44:12.444Z,32.03
2022-12-01T08:46:40.301Z,30.88
2022-12-01T08:49:08.392Z,34.13
2022-12-01T08:51:37.129Z,32.40
2022-12-01T08:54:05.180Z,32.58
2022-12-01T08:56:36.784Z,33.92
2022-12-01T08:59:05.381Z,32.53
2022-12-01T09:01:33.731Z,31.80
2022-12-01T09:04:08.092Z,31.92
2022-12-01T09:06:40.292Z,33.55
2022-12-01T09:09:08.866Z,32.88
2022-12-01T09:11:38.565Z,31.10
2022-12-01T09:14:06.366Z,31.13
2022-12-01T09:16:34.287Z,31.08
2022-12-01T09:19:02.164Z,29.85
2022-12-01T09:21:31.270Z,29.55
2022-12-01T09:23:59.283Z,30.33
2022-12-01T09:26:27.692Z,29.38
2022-12-01T09:29:00.638Z,29.70
2022-12-01T09:31:28.835Z,29.58
2022-12-01T09:33:57.826Z,29.17
2022-12-01T09:36:26.217Z,28.52
2022-12-01T09:38:54.051Z,29.27
2022-12-01T09:41:25.365Z,29.25
2022-12-01T09:44:00.796Z,29.35
2022-12-01T09:46:33.123Z,28.65
2022-12-01T09:49:03.639Z,28.80
2022-12-01T09:51:34.771Z,27.73
2022-12-01T09:54:03.201Z,26.98
2022-12-01T09:56:33.465Z,27.23
2022-12-01T09:59:07.386Z,25.27
2022-12-01T10:01:38.331Z,25.65
2022-12-01T10:04:12.679Z,26.02
2022-12-01T10:06:45.120Z,26.13
2022-12-01T10:09:22.393Z,24.77
2022-12-01T10:11:55.285Z,25.50
2022-12-01T10:14:24.622Z,25.80
2022-12-01T10:17:04.494Z,25.17
2022-12-01T10:19:40.313Z,24.67
2022-12-01T10:22:27.754Z,25.13
2022-12-01T10:25:01.708Z,25.42
2022-12-01T10:27:51.866Z,25.98
2022-12-01T10:30:23.611Z,26.03
2022-12-01T10:32:54.374Z,25.67
2022-12-01T10:35:25.125Z,26.52
2022-12-01T10:37:58.557Z,26.75
2022-12-01T10:40:28.465Z,26.65
2022-12-01T10:42:56.644Z,25.45
2022-12-01T10:45:29.751Z,24.80
2022-12-01T10:48:16.448Z,38.28
2022-12-01T10:50:46.276Z,24.27
2022-12-01T10:53:37.965Z,26.15
2022-12-01T10:56:11.037Z,25.38
2022-12-01T10:58:46.254Z,26.25
2022-12-01T11:01:20.933Z,25.90
2022-12-01T11:03:54.268Z,27.20
2022-12-01T11:06:26.451Z,27.50
2022-12-01T11:08:57.838Z,26.92
2022-12-01T11:11:30.164Z,26.38
2022-12-01T11:14:00.473Z,26.50
2022-12-01T11:16:52.269Z,27.15
2022-12-01T11:19:28.052Z,26.42
2022-12-01T11:21:57.760Z,27.50
2022-12-01T11:24:31.976Z,26.63
2022-12-01T11:27:01.038Z,25.50
2022-12-01T11:29:35.939Z,26.05
2022-12-01T11:32:17.746Z,26.87
2022-12-01T11:34:51.526Z,25.80
2022-12-01T11:37:23.125Z,26.52
2022-12-01T11:39:53.071Z,27.55
2022-12-01T11:42:25.133Z,26.25
2022-12-01T11:44:55.230Z,26.95
2022-12-01T11:47:26.413Z,26.33
2022-12-01T11:49:57.504Z,26.38
2022-12-01T11:52:31.455Z,26.45
2022-12-01T11:55:06.916Z,26.17
2022-12-01T11:57:40.144Z,25.83
2022-12-01T12:00:15.001Z,26.27
2022-12-01T12:02:57.706Z,26.70
2022-12-01T12:05:46.249Z,26.30
2022-12-01T12:08:25.685Z,25.20
2022-12-01T12:11:00.093Z,26.23
2022-12-01T12:14:01.666Z,26.52
2022-12-01T12:16:43.790Z,26.25
2022-12-01T12:19:39.300Z,26.98
2022-12-01T12:22:25.439Z,26.93
2022-12-01T12:25:07.114Z,27.88
2022-12-01T12:27:47.061Z,27.92
2022-12-01T12:30:22.818Z,27.98
2022-12-01T12:33:31.166Z,27.80
2022-12-01T12:36:16.105Z,28.15
2022-12-01T12:38:55.586Z,27.27
2022-12-01T12:41:33.105Z,28.10
2022-12-01T12:44:25.685Z,28.07
2022-12-01T12:47:01.985Z,28.50
2022-12-01T12:49:41.936Z,28.42
2022-12-01T12:52:16.596Z,26.45
2022-12-01T12:54:50.151Z,26.95
2022-12-01T12:57:27.250Z,27.40
2022-12-01T13:00:00.088Z,28.40
2022-12-01T13:02:34.007Z,27.92
2022-12-01T13:05:07.827Z,26.92
2022-12-01T13:07:42.900Z,25.92
2022-12-01T13:10:22.708Z,26.10
2022-12-01T13:12:57.441Z,27.38
2022-12-01T13:15:26.080Z,27.60
2022-12-01T13:17:56.545Z,26.65
2022-12-01T13:20:30.127Z,27.10
2022-12-01T13:23:02.005Z,27.35
2022-12-01T13:25:38.150Z,28.10
2022-12-01T13:28:12.355Z,28.77
2022-12-01T13:30:40.748Z,28.27
2022-12-01T13:33:08.702Z,29.20
2022-12-01T13:35:38.846Z,28.13
2022-12-01T13:38:30.564Z,30.13
2022-12-01T13:41:13.337Z,29.52
2022-12-01T13:43:54.428Z,28.73
2022-12-01T13:46:23.841Z,28.85
2022-12-01T13:48:53.444Z,27.73
2022-12-01T13:51:21.371Z,28.02
2022-12-01T13:54:27.508Z,29.45
2022-12-01T13:57:02.585Z,28.93
2022-12-01T13:59:42.030Z,29.45
2022-12-01T14:02:20.889Z,29.80
2022-12-01T14:04:49.444Z,29.25
2022-12-01T14:07:30.745Z,29.35
2022-12-01T14:10:32.805Z,28.73
2022-12-01T14:13:04.809Z,28.30
2022-12-01T14:15:42.213Z,28.50
2022-12-01T14:18:32.962Z,27.73
2022-12-01T14:21:02.185Z,28.00
2022-12-01T14:23:33.783Z,25.20
2022-12-01T14:26:19.121Z,27.70
2022-12-01T14:29:11.634Z,27.30
2022-12-01T14:32:18.919Z,26.40
2022-12-01T14:34:50.642Z,27.80
2022-12-01T14:37:20.800Z,27.08
2022-12-01T14:39:56.237Z,26.83
2022-12-01T14:42:49.213Z,26.90
2022-12-01T14:45:21.416Z,27.17
2022-12-01T14:47:56.649Z,27.05
2022-12-01T14:50:29.328Z,26.40
2022-12-01T14:53:02.755Z,27.15
2022-12-01T14:55:38.823Z,26.77
2022-12-01T14:58:13.718Z,27.23
2022-12-01T15:00:55.692Z,26.77
2022-12-01T15:03:28.953Z,26.67
2022-12-01T15:05:59.771Z,26.92
2022-12-01T15:09:04.146Z,25.60
2022-12-01T15:11:25.249Z,26.35
2022-12-01T15:13:56.077Z,26.58
2022-12-01T15:16:26.824Z,26.85
2022-12-01T15:18:54.897Z,26.63
2022-12-01T15:21:25.356Z,26.52
2022-12-01T15:23:54.825Z,25.88
2022-12-01T15:26:24.891Z,26.30
2022-12-01T15:29:07.145Z,26.00
2022-12-01T15:31:36.033Z,26.10
2022-12-01T15:34:04.179Z,25.17
2022-12-01T15:36:32.228Z,25.60
2022-12-01T15:39:06.849Z,26.27
2022-12-01T15:41:39.912Z,26.80
2022-12-01T15:44:20.516Z,26.75
2022-12-01T15:46:48.492Z,26.85
2022-12-01T15:49:20.738Z,26.92
2022-12-01T15:51:50.154Z,26.80
2022-12-01T15:54:21.903Z,26.95
2022-12-01T15:56:54.180Z,25.50
2022-12-01T15:59:39.159Z,25.38
2022-12-01T16:02:17.382Z,26.17
2022-12-01T16:04:45.268Z,25.60
2022-12-01T16:07:13.936Z,24.35
2022-12-01T16:09:43.574Z,25.05
2022-12-01T16:12:22.963Z,24.80
2022-12-01T16:14:55.703Z,25.77
2022-12-01T16:17:24.458Z,26.13
2022-12-01T16:20:22.783Z,24.85
2022-12-01T16:22:56.543Z,26.02
2022-12-01T16:25:30.660Z,26.98
2022-12-01T16:27:59.161Z,26.52
2022-12-01T16:30:31.348Z,25.88
2022-12-01T16:33:04.173Z,27.25
2022-12-01T16:35:33.698Z,27.45
2022-12-01T16:38:03.849Z,26.55
2022-12-01T16:40:31.816Z,26.63
2022-12-01T16:42:59.626Z,26.27
2022-12-01T16:45:28.765Z,26.83
2022-12-01T16:47:56.631Z,26.40
2022-12-01T16:50:24.581Z,25.70
2022-12-01T16:52:52.582Z,26.08
2022-12-01T16:55:34.718Z,27.08
2022-12-01T16:58:02.484Z,26.77
2022-12-01T17:00:31.694Z,28.85
2022-12-01T17:02:59.656Z,27.85
2022-12-01T17:05:27.721Z,27.35
2022-12-01T17:07:55.659Z,26.77
2022-12-01T17:10:24.058Z,25.90
2022-12-01T17:12:52.068Z,25.88
2022-12-01T17:15:20.346Z,27.08
2022-12-01T17:17:49.882Z,26.70
2022-12-01T17:20:18.214Z,26.20
2022-12-01T17:22:45.994Z,25.35
2022-12-01T17:25:13.996Z,30.42
2022-12-01T17:27:43.507Z,29.25
2022-12-01T17:30:12.796Z,30.58
2022-12-01T17:32:40.654Z,30.57
2022-12-01T17:35:10.893Z,28.55
2022-12-01T17:37:38.664Z,27.77
2022-12-01T17:40:08.744Z,27.90
2022-12-01T17:42:36.986Z,28.30
2022-12-01T17:45:05.479Z,28.23
2022-12-01T17:47:33.333Z,28.52
2022-12-01T17:50:01.191Z,28.23
2022-12-01T17:52:30.534Z,28.88
2022-12-01T17:54:59.004Z,28.33
2022-12-01T17:57:27.183Z,28.27
2022-12-01T17:59:54.993Z,28.15
2022-12-01T18:02:22.848Z,27.73
2022-12-01T18:04:51.151Z,27.63
2022-12-01T18:07:19.109Z,26.20
2022-12-01T18:09:48.601Z,26.13
2022-12-01T18:12:16.725Z,26.58
2022-12-01T18:14:44.499Z,26.53
2022-12-01T18:17:12.398Z,26.40
2022-12-01T18:19:40.361Z,26.67
2022-12-01T18:22:08.135Z,26.35
2022-12-01T18:24:36.238Z,26.52
2022-12-01T18:27:05.497Z,26.55
2022-12-01T18:29:33.880Z,25.93
2022-12-01T18:32:02.242Z,25.37
2022-12-01T18:34:30.255Z,26.58
2022-12-01T18:36:58.224Z,26.02
2022-12-01T18:39:26.066Z,25.88
2022-12-01T18:41:54.046Z,25.75
2022-12-01T18:44:23.244Z,25.77
2022-12-01T18:46:51.452Z,26.05
2022-12-01T18:49:20.466Z,24.52
2022-12-01T18:51:48.220Z,26.00
2022-12-01T18:54:17.451Z,26.02
2022-12-01T18:56:45.367Z,26.90
2022-12-01T18:59:13.786Z,25.27
2022-12-01T19:01:45.864Z,26.60
2022-12-01T19:04:15.574Z,25.45
2022-12-01T19:06:44.559Z,27.90
2022-12-01T19:09:14.267Z,28.08
2022-12-01T19:11:43.183Z,28.42
2022-12-01T19:14:14.712Z,27.88
2022-12-01T19:16:44.229Z,27.52
2022-12-01T19:19:12.472Z,27.77
2022-12-01T19:21:40.569Z,29.02
2022-12-01T19:24:08.851Z,29.75
2022-12-01T19:26:36.648Z,29.97
2022-12-01T19:29:04.871Z,29.63
2022-12-01T19:31:32.795Z,29.60
2022-12-01T19:34:03.538Z,29.90
2022-12-01T19:36:31.586Z,30.80
2022-12-01T19:39:00.678Z,29.70
2022-12-01T19:41:31.522Z,28.60
2022-12-01T19:43:59.493Z,28.17
2022-12-01T19:46:28.664Z,29.17
2022-12-01T19:49:00.033Z,27.90
2022-12-01T19:51:31.841Z,27.50
2022-12-01T19:53:59.765Z,29.42
2022-12-01T19:56:28.625Z,28.40
2022-12-01T19:58:58.049Z,27.37
2022-12-01T20:01:27.181Z,26.55
2022-12-01T20:03:55.910Z,27.50
2022-12-01T20:06:25.651Z,28.63
2022-12-01T20:08:56.962Z,28.85
2022-12-01T20:11:25.391Z,28.40
2022-12-01T20:13:53.311Z,28.23
2022-12-01T20:16:22.935Z,28.52
2022-12-01T20:18:51.580Z,27.85
2022-12-01T20:21:20.982Z,28.80
2022-12-01T20:23:50.764Z,28.77
2022-12-01T20:26:23.878Z,28.90
2022-12-01T20:28:54.204Z,28.97
2022-12-01T20:31:24.518Z,28.83
2022-12-01T20:33:54.565Z,29.13
2022-12-01T20:36:22.661Z,28.70
2022-12-01T20:38:50.504Z,27.67
2022-12-01T20:41:19.846Z,29.43
2022-12-01T20:43:48.001Z,29.98
2022-12-01T20:46:16.511Z,28.60
2022-12-01T20:48:44.590Z,29.15
2022-12-01T20:51:15.389Z,28.23
2022-12-01T20:53:59.557Z,28.23
2022-12-01T20:56:33.178Z,29.10
2022-12-01T20:59:01.142Z,29.38
2022-12-01T21:01:29.010Z,27.47
2022-12-01T21:03:56.928Z,27.48
2022-12-01T21:06:24.802Z,29.30
2022-12-01T21:08:52.736Z,28.70
2022-12-01T21:11:44.447Z,29.83
2022-12-01T21:14:16.333Z,30.13
2022-12-01T21:16:48.145Z,31.13
2022-12-01T21:19:22.727Z,28.98
2022-12-01T21:21:50.700Z,28.65
2022-12-01T21:24:22.018Z,28.08
2022-12-01T21:26:51.632Z,29.58
2022-12-01T21:29:22.618Z,29.58
2022-12-01T21:31:52.868Z,29.73
2022-12-01T21:34:23.210Z,29.88
2022-12-01T21:36:52.760Z,28.58
2022-12-01T21:39:22.615Z,31.08
2022-12-01T21:41:51.662Z,29.38
2022-12-01T21:44:22.654Z,31.42
2022-12-01T21:46:55.696Z,30.23
2022-12-01T21:49:34.034Z,29.98
2022-12-01T21:52:03.419Z,31.23
2022-12-01T21:54:31.338Z,31.23
2022-12-01T21:56:59.491Z,31.13
2022-12-01T21:59:28.712Z,30.70
2022-12-01T22:01:58.497Z,29.80
2022-12-01T22:04:30.228Z,29.63
2022-12-01T22:06:58.956Z,30.45
2022-12-01T22:09:30.381Z,29.45
2022-12-01T22:12:01.336Z,30.27
2022-12-01T22:14:34.033Z,29.37
2022-12-01T22:17:12.405Z,29.70
2022-12-01T22:19:42.413Z,30.02
2022-12-01T22:22:23.134Z,29.17
2022-12-01T22:24:52.943Z,31.95
2022-12-01T22:27:32.349Z,28.38
2022-12-01T22:30:11.548Z,29.02
2022-12-01T22:32:53.017Z,29.08
2022-12-01T22:35:42.934Z,28.38
2022-12-01T22:38:21.001Z,29.23
2022-12-01T22:40:59.566Z,28.67
2022-12-01T22:43:42.212Z,29.73
2022-12-01T22:46:23.497Z,28.55
2022-12-01T22:48:53.502Z,28.58
2022-12-01T22:51:42.319Z,28.95
2022-12-01T22:54:39.515Z,29.77
2022-12-01T22:57:27.813Z,29.38
2022-12-01T22:59:56.087Z,30.05
2022-12-01T23:02:29.600Z,31.98
2022-12-01T23:05:00.253Z,30.85
2022-12-01T23:07:31.417Z,28.95
2022-12-01T23:10:10.149Z,30.95
2022-12-01T23:12:38.658Z,30.30
2022-12-01T23:15:21.962Z,31.40
2022-12-01T23:17:51.663Z,30.35
2022-12-01T23:20:32.345Z,30.77
2022-12-01T23:23:02.426Z,31.87
2022-12-01T23:25:30.410Z,31.30
2022-12-01T23:28:01.046Z,31.35
2022-12-01T23:30:28.856Z,30.80
2022-12-01T23:33:18.630Z,30.27
2022-12-01T23:35:51.743Z,32.03
2022-12-01T23:38:21.933Z,29.88
2022-12-01T23:40:51.502Z,31.13
2022-12-01T23:43:22.480Z,31.63
2022-12-01T23:45:52.759Z,33.15
2022-12-01T23:48:33.892Z,32.63
2022-12-01T23:51:02.155Z,31.73
2022-12-01T23:53:32.286Z,31.83
2022-12-01T23:56:18.778Z,31.33
2022-12-01T23:58:46.678Z,34.13
